Time;durP1;ratioP1;P1;durP2;ratioP2;P2;SDS_P1;SDS_P2;PMS_P1;PMS_P2;Temp;Humidity;BMP_temperature;BMP_pressure;BME280_temperature;BME280_humidity;BME280_pressure;Samples;Min_cycle;Max_cycle;Signal;HPM_P1;HPM_P2
2023/09/08 00:02:44;;;;;;;2.08;1.30;;;;;;;18.87;100.00;98811.06;15310452;19;20022;-53
2023/09/08 00:08:15;;;;;;;3.15;1.30;;;;;;;18.72;100.00;98808.50;15325742;19;20061;-53
2023/09/08 00:13:31;;;;;;;2.65;1.50;;;;;;;18.63;100.00;98809.75;15310205;19;20018;-53
2023/09/08 00:19:02;;;;;;;1.42;1.30;;;;;;;18.55;100.00;98815.34;15310952;19;20017;-53
2023/09/08 00:24:30;;;;;;;2.45;1.50;;;;;;;18.41;100.00;98801.66;15319887;19;20014;-53
2023/09/08 00:29:55;;;;;;;1.55;1.30;;;;;;;18.31;100.00;98806.63;15318854;19;20018;-51
2023/09/08 00:35:20;;;;;;;1.63;1.20;;;;;;;18.24;100.00;98801.16;15314383;19;20018;-53
2023/09/08 00:40:47;;;;;;;2.25;1.30;;;;;;;18.09;100.00;98811.38;15316967;19;20402;-53
2023/09/08 00:46:12;;;;;;;2.05;1.42;;;;;;;17.91;100.00;98804.50;15313489;19;20014;-49
2023/09/08 00:51:38;;;;;;;1.98;1.40;;;;;;;17.78;100.00;98805.25;15309915;19;20022;-54
2023/09/08 00:57:08;;;;;;;1.40;1.30;;;;;;;17.68;100.00;98805.59;15318517;19;20006;-53
2023/09/08 01:02:33;;;;;;;2.67;1.48;;;;;;;17.61;100.00;98820.22;15316982;19;20011;-52
2023/09/08 01:07:59;;;;;;;2.08;1.60;;;;;;;17.55;100.00;98811.78;15315270;19;20349;-53
2023/09/08 01:13:27;;;;;;;2.75;1.58;;;;;;;17.52;100.00;98817.63;15311232;19;20018;-54
2023/09/08 01:18:59;;;;;;;1.80;1.50;;;;;;;17.52;100.00;98819.53;15309014;19;20015;-54
2023/09/08 01:24:51;;;;;;;2.58;1.63;;;;;;;17.52;100.00;98817.63;15300689;19;20018;-51
2023/09/08 01:30:19;;;;;;;2.33;1.70;;;;;;;17.51;100.00;98812.41;15305235;19;20543;-51
2023/09/08 01:35:44;;;;;;;4.07;1.80;;;;;;;17.49;100.00;98815.28;15307483;19;20090;-52
2023/09/08 01:41:10;;;;;;;4.40;1.50;;;;;;;17.48;100.00;98816.31;15294549;19;20657;-53
2023/09/08 01:46:39;;;;;;;1.70;1.30;;;;;;;17.46;100.00;98814.84;15305433;19;20702;-51
2023/09/08 01:52:04;;;;;;;2.58;1.40;;;;;;;17.44;100.00;98806.88;15298969;19;20038;-52
2023/09/08 01:57:44;;;;;;;2.17;1.48;;;;;;;17.48;100.00;98799.97;15297331;19;20018;-54
2023/09/08 02:03:13;;;;;;;3.92;1.50;;;;;;;17.48;100.00;98807.34;15306418;19;20018;-54
2023/09/08 02:08:38;;;;;;;1.75;1.48;;;;;;;17.51;100.00;98802.31;15303240;19;20042;-55
2023/09/08 02:14:03;;;;;;;2.70;1.60;;;;;;;17.58;100.00;98796.09;15299823;19;20022;-51
2023/09/08 02:19:37;;;;;;;3.60;1.50;;;;;;;17.58;100.00;98802.38;15301816;19;20014;-53
2023/09/08 02:25:03;;;;;;;1.83;1.40;;;;;;;17.65;100.00;98802.44;15293705;19;20064;-53
2023/09/08 02:30:28;;;;;;;1.85;1.40;;;;;;;17.71;100.00;98799.75;15288076;19;20010;-51
2023/09/08 02:35:56;;;;;;;1.52;1.35;;;;;;;17.80;100.00;98794.16;15300988;19;20050;-53
2023/09/08 02:41:24;;;;;;;2.17;1.30;;;;;;;17.85;100.00;98792.50;15303889;19;20039;-54
2023/09/08 02:46:48;;;;;;;1.95;1.40;;;;;;;17.95;100.00;98789.44;15295952;19;20018;-51
2023/09/08 02:52:19;;;;;;;1.88;1.33;;;;;;;18.02;100.00;98784.06;15296287;19;20487;-53
2023/09/08 02:57:45;;;;;;;2.17;1.50;;;;;;;18.14;100.00;98787.03;15267733;19;20006;-55
2023/09/08 03:03:11;;;;;;;1.75;1.38;;;;;;;18.25;100.00;98788.38;15268362;19;20051;-57
2023/09/08 03:08:40;;;;;;;2.88;1.48;;;;;;;18.31;100.00;98787.56;15270231;19;20119;-56
2023/09/08 03:14:04;;;;;;;2.22;1.30;;;;;;;18.34;100.00;98789.88;15260021;19;20011;-55
2023/09/08 03:19:36;;;;;;;1.50;1.40;;;;;;;18.37;100.00;98784.03;15268510;19;20017;-55
2023/09/08 03:25:03;;;;;;;2.08;1.33;;;;;;;18.38;100.00;98773.94;14765485;19;10000762;-56
2023/09/08 03:30:28;;;;;;;2.63;1.23;;;;;;;18.35;100.00;98777.06;15272836;19;20032;-54
2023/09/08 03:35:53;;;;;;;2.20;1.48;;;;;;;18.20;100.00;98771.75;15263982;19;20011;-55
2023/09/08 03:41:21;;;;;;;1.58;1.40;;;;;;;18.13;100.00;98769.84;15288433;19;20018;-55
2023/09/08 03:46:46;;;;;;;2.03;1.35;;;;;;;18.06;100.00;98771.69;15299797;19;20014;-55
2023/09/08 03:52:10;;;;;;;2.13;1.65;;;;;;;18.00;100.00;98772.50;15287324;19;20022;-54
2023/09/08 03:57:38;;;;;;;2.00;1.40;;;;;;;17.96;100.00;98772.03;15280424;19;21005;-56
2023/09/08 04:03:03;;;;;;;1.70;1.60;;;;;;;17.82;100.00;98768.38;15286088;19;20010;-56
2023/09/08 04:08:29;;;;;;;2.35;1.67;;;;;;;17.66;100.00;98765.97;15275671;19;20006;-56
2023/09/08 04:13:56;;;;;;;2.60;1.58;;;;;;;17.58;100.00;98768.88;15281804;19;20010;-54
2023/09/08 04:19:28;;;;;;;1.55;1.30;;;;;;;17.53;100.00;98763.97;15283194;19;20472;-53
2023/09/08 04:24:54;;;;;;;3.55;1.50;;;;;;;17.44;100.00;98757.84;15286508;19;20019;-54
2023/09/08 04:30:22;;;;;;;2.80;1.50;;;;;;;17.44;100.00;98757.84;15281019;19;20018;-58
2023/09/08 04:35:47;;;;;;;2.35;1.38;;;;;;;17.42;100.00;98759.94;15284377;19;20040;-56
2023/09/08 04:41:12;;;;;;;1.50;1.40;;;;;;;17.42;100.00;98762.66;15278205;19;20109;-56
2023/09/08 04:46:39;;;;;;;3.13;1.45;;;;;;;17.41;100.00;98759.06;15283774;19;20006;-56
2023/09/08 04:52:05;;;;;;;1.50;1.30;;;;;;;17.37;100.00;98767.84;15276718;19;20002;-55
2023/09/08 04:57:31;;;;;;;4.28;1.40;;;;;;;17.30;100.00;98759.59;15278921;19;20011;-56
2023/09/08 05:02:58;;;;;;;1.90;1.27;;;;;;;17.24;100.00;98757.69;15277529;19;20089;-55
2023/09/08 05:08:23;;;;;;;2.83;1.50;;;;;;;17.21;100.00;98763.53;15281045;19;20026;-55
2023/09/08 05:13:48;;;;;;;1.40;1.30;;;;;;;17.17;100.00;98760.34;15271323;19;20027;-55
2023/09/08 05:19:23;;;;;;;2.05;1.45;;;;;;;17.17;100.00;98762.25;15269905;19;20156;-52
2023/09/08 05:24:49;;;;;;;1.80;1.48;;;;;;;17.13;100.00;98766.38;15273348;19;20018;-55
2023/09/08 05:30:10;;;;;;;2.17;1.33;;;;;;;17.08;100.00;98766.97;15277421;19;20066;-56
2023/09/08 05:35:38;;;;;;;1.80;1.40;;;;;;;17.08;100.00;98758.81;15265238;19;20023;-54
2023/09/08 05:41:03;;;;;;;4.25;1.42;;;;;;;17.12;100.00;98765.53;15273331;19;20011;-55
2023/09/08 05:46:27;;;;;;;3.53;1.45;;;;;;;17.15;100.00;98772.47;15272968;19;20018;-56
2023/09/08 05:51:54;;;;;;;1.42;1.33;;;;;;;17.15;100.00;98770.59;15271976;19;20010;-56
2023/09/08 05:57:20;;;;;;;6.05;1.75;;;;;;;17.15;100.00;98764.31;15273068;19;20021;-55
2023/09/08 06:02:45;;;;;;;3.00;1.50;;;;;;;17.21;100.00;98767.09;15270969;19;20046;-53
2023/09/08 06:08:13;;;;;;;2.58;1.40;;;;;;;17.27;100.00;98775.50;15265641;19;20475;-56
2023/09/08 06:13:38;;;;;;;3.10;1.40;;;;;;;17.35;100.00;98780.81;15263435;19;20006;-54
2023/09/08 06:19:09;;;;;;;1.90;1.23;;;;;;;17.47;100.00;98773.78;15266649;19;20022;-57
2023/09/08 06:24:37;;;;;;;;;;;;;;;17.58;100.00;98786.03;15269849;19;20006;-52
2023/09/08 06:30:01;;;;;;;27.13;2.60;;;;;;;17.61;100.00;98780.19;15271655;19;19923;-54
2023/09/08 06:35:29;;;;;;;25.17;2.55;;;;;;;17.71;100.00;98779.81;15267485;19;20015;-56
2023/09/08 06:40:56;;;;;;;7.97;1.73;;;;;;;17.81;100.00;98780.34;15265449;19;20014;-57
2023/09/08 06:46:21;;;;;;;1.67;1.58;;;;;;;17.94;100.00;98778.72;15262727;19;20047;-56
2023/09/08 06:51:47;;;;;;;4.50;1.58;;;;;;;18.02;100.00;98775.88;15270226;19;20018;-55
2023/09/08 06:57:16;;;;;;;23.98;2.30;;;;;;;18.19;100.00;98779.13;15268193;19;20466;-57
2023/09/08 07:02:40;;;;;;;4.15;1.50;;;;;;;18.34;100.00;98778.97;15268515;19;20018;-56
2023/09/08 07:08:06;;;;;;;12.57;1.70;;;;;;;18.53;100.00;98787.44;15267214;19;20010;-54
2023/09/08 07:13:34;;;;;;;4.00;1.50;;;;;;;18.66;100.00;98786.66;15257792;19;20003;-57
2023/09/08 07:19:00;;;;;;;6.15;1.50;;;;;;;18.83;100.00;98778.94;15260777;19;20022;-56
2023/09/08 07:24:26;;;;;;;12.85;1.70;;;;;;;19.03;100.00;98784.47;15272201;19;20475;-58
2023/09/08 07:29:54;;;;;;;64.47;3.00;;;;;;;19.28;100.00;98778.41;15273741;19;20038;-56
2023/09/08 07:35:20;;;;;;;41.40;2.60;;;;;;;19.48;100.00;98778.38;15263008;19;20482;-60
2023/09/08 07:40:45;;;;;;;12.27;1.52;;;;;;;19.66;100.00;98775.03;15266776;19;20010;-55
2023/09/08 07:46:12;;;;;;;2.30;1.30;;;;;;;19.87;100.00;98779.44;15259495;19;20010;-53
2023/09/08 07:51:37;;;;;;;2.97;1.35;;;;;;;20.05;100.00;98770.56;15268004;19;20086;-56
2023/09/08 07:57:01;;;;;;;3.35;1.30;;;;;;;20.21;100.00;98777.47;15274017;19;20011;-56
2023/09/08 08:02:30;;;;;;;2.83;1.20;;;;;;;20.50;100.00;98769.78;15274985;19;20471;-56
2023/09/08 08:07:54;;;;;;;4.07;1.48;;;;;;;20.74;100.00;98772.84;15268748;19;20407;-54
2023/09/08 08:13:19;;;;;;;2.67;1.30;;;;;;;20.96;100.00;98767.03;15274848;19;20376;-56
2023/09/08 08:18:53;;;;;;;1.30;1.20;;;;;;;21.17;100.00;98772.16;15268014;19;20740;-52
2023/09/08 08:24:19;;;;;;;1.52;1.10;;;;;;;21.41;100.00;98758.69;15270683;19;20023;-56
2023/09/08 08:29:43;;;;;;;1.30;1.20;;;;;;;21.77;100.00;98753.53;15288135;19;20006;-58
2023/09/08 08:35:10;;;;;;;2.67;1.40;;;;;;;22.05;100.00;98755.75;15282530;19;20032;-57
2023/09/08 08:40:35;;;;;;;1.52;1.23;;;;;;;22.27;100.00;98749.84;15291986;19;20006;-57
2023/09/08 08:46:02;;;;;;;3.53;1.10;;;;;;;22.58;96.46;98745.25;14775221;19;10001606;-57
2023/09/08 08:51:32;;;;;;;1.95;1.10;;;;;;;22.75;100.00;98743.53;15282828;19;20550;-55
2023/09/08 08:56:58;;;;;;;3.17;1.20;;;;;;;23.05;91.61;98739.91;15276482;19;20015;-58
2023/09/08 09:02:24;;;;;;;1.55;1.08;;;;;;;23.32;86.03;98735.94;15288955;19;20007;-57
2023/09/08 09:07:53;;;;;;;2.20;1.27;;;;;;;23.52;88.79;98741.91;15282569;19;20094;-53
2023/09/08 09:13:17;;;;;;;2.88;1.27;;;;;;;23.68;84.97;98734.91;15281784;19;20494;-56
2023/09/08 09:19:09;;;;;;;3.67;1.10;;;;;;;23.88;80.78;98736.44;15284966;19;20475;-56
2023/09/08 09:24:40;;;;;;;1.92;1.17;;;;;;;23.99;88.86;98741.09;15271749;19;20021;-55
2023/09/08 09:30:07;;;;;;;;;;;;;;;24.13;80.84;98738.09;15295342;19;20019;-53
2023/09/08 09:35:45;;;;;;;2.65;1.25;;;;;;;24.31;83.73;98729.66;15332325;19;20341;-53
2023/09/08 09:41:13;;;;;;;2.67;1.10;;;;;;;24.58;84.63;98736.50;15341761;19;20007;-55
2023/09/08 09:46:38;;;;;;;1.63;1.10;;;;;;;24.79;79.72;98734.19;15340009;19;20006;-56
2023/09/08 09:52:09;;;;;;;1.70;1.20;;;;;;;24.93;73.64;98730.06;15315858;19;20628;-54
2023/09/08 09:57:37;;;;;;;;;;;;;;;25.05;70.18;98725.28;15277255;19;20102;-54
2023/09/08 10:03:02;;;;;;;1.35;1.00;;;;;;;25.18;76.66;98729.66;15270437;19;20525;-56
2023/09/08 10:08:28;;;;;;;1.13;1.02;;;;;;;25.32;72.70;98727.41;15273902;19;20086;-55
2023/09/08 10:14:00;;;;;;;2.30;1.10;;;;;;;25.51;66.08;98728.00;15270911;19;20041;-55
2023/09/08 10:19:31;;;;;;;;;;;;;;;25.66;69.26;98721.06;15270805;19;20029;-51
2023/09/08 10:25:05;;;;;;;3.03;1.10;;;;;;;25.77;71.56;98711.84;15270941;19;19926;-58
2023/09/08 10:30:34;;;;;;;2.47;1.30;;;;;;;25.97;70.52;98704.94;15278319;19;20019;-55
2023/09/08 10:35:58;;;;;;;1.75;1.13;;;;;;;26.11;71.89;98705.41;15264404;19;20025;-54
2023/09/08 10:41:34;;;;;;;1.40;1.17;;;;;;;26.24;70.63;98710.56;15273455;19;20014;-53
2023/09/08 10:47:01;;;;;;;1.90;1.20;;;;;;;26.33;69.68;98705.41;15274296;19;20097;-50
2023/09/08 10:52:28;;;;;;;1.10;1.00;;;;;;;26.45;66.51;98705.28;15273947;19;20019;-55
2023/09/08 10:57:54;;;;;;;1.40;1.25;;;;;;;26.56;67.31;98706.22;15270230;19;20755;-54
2023/09/08 11:03:30;;;;;;;1.95;1.00;;;;;;;26.72;63.53;98702.53;15272737;19;20007;-54
2023/09/08 11:08:56;;;;;;;1.10;1.00;;;;;;;26.89;63.40;98705.22;15266438;19;20609;-58
2023/09/08 11:14:23;;;;;;;2.33;1.23;;;;;;;26.97;61.12;98701.16;15264967;19;20006;-53
2023/09/08 11:19:58;;;;;;;1.35;1.10;;;;;;;27.12;59.02;98699.59;15267821;19;20038;-53
2023/09/08 11:25:23;;;;;;;1.63;1.15;;;;;;;27.24;58.99;98703.03;15270400;19;20368;-51
2023/09/08 11:30:48;;;;;;;2.17;1.00;;;;;;;27.38;57.28;98697.88;15267562;19;20014;-56
2023/09/08 11:36:19;;;;;;;3.72;1.02;;;;;;;27.56;56.26;98696.66;15262744;19;20010;-51
2023/09/08 11:41:44;;;;;;;1.05;0.95;;;;;;;27.67;56.14;98692.00;15271850;19;20444;-54
2023/09/08 11:47:09;;;;;;;4.00;1.00;;;;;;;27.80;55.65;98690.72;15269204;19;20074;-56
2023/09/08 11:52:37;;;;;;;0.90;0.90;;;;;;;27.93;53.76;98686.63;15268450;19;20018;-56
2023/09/08 11:58:03;;;;;;;1.88;0.90;;;;;;;28.09;51.82;98679.25;15270393;19;20043;-54
2023/09/08 12:03:28;;;;;;;0.98;0.98;;;;;;;28.24;52.37;98681.25;15282042;19;20023;-54
2023/09/08 12:08:56;;;;;;;0.90;0.90;;;;;;;28.42;49.58;98664.13;15273059;19;20486;-55
2023/09/08 12:14:22;;;;;;;1.00;0.90;;;;;;;28.64;50.67;98668.59;15284101;19;20028;-53
2023/09/08 12:19:54;;;;;;;2.05;0.90;;;;;;;28.81;49.08;98657.28;15281495;19;20043;-56
2023/09/08 12:25:22;;;;;;;1.20;0.90;;;;;;;29.02;47.96;98648.97;15281701;19;20456;-56
2023/09/08 12:30:49;;;;;;;1.00;0.90;;;;;;;29.20;49.08;98650.34;15285021;19;20105;-55
2023/09/08 12:36:15;;;;;;;1.30;0.90;;;;;;;29.40;46.22;98641.22;15273464;19;20021;-53
2023/09/08 12:41:43;;;;;;;3.28;1.00;;;;;;;29.61;45.73;98644.78;15274475;19;20736;-51
2023/09/08 12:47:13;;;;;;;1.42;1.00;;;;;;;29.81;44.43;98627.19;15276224;19;20014;-61
2023/09/08 12:52:37;;;;;;;1.83;0.98;;;;;;;30.06;45.92;98627.44;15275389;19;20014;-53
2023/09/08 12:58:05;;;;;;;2.45;0.90;;;;;;;30.28;43.78;98638.16;15273379;19;20025;-53
2023/09/08 13:03:29;;;;;;;2.75;0.85;;;;;;;30.49;44.54;98624.13;15278650;19;20018;-53
2023/09/08 13:08:54;;;;;;;2.00;0.80;;;;;;;30.78;45.65;98629.78;15272329;19;20019;-54
2023/09/08 13:14:22;;;;;;;1.15;0.90;;;;;;;30.83;43.37;98629.75;15273221;19;20379;-56
2023/09/08 13:19:54;;;;;;;1.58;0.90;;;;;;;31.08;42.09;98621.47;15275254;19;20010;-55
2023/09/08 13:25:20;;;;;;;2.53;0.80;;;;;;;31.36;42.95;98617.88;15275836;19;20015;-57
2023/09/08 13:30:47;;;;;;;0.80;0.80;;;;;;;31.65;41.56;98611.44;15277539;19;20066;-52
2023/09/08 13:36:12;;;;;;;1.92;0.80;;;;;;;31.78;40.77;98612.72;15276212;19;20535;-56
2023/09/08 13:41:55;;;;;;;2.47;0.90;;;;;;;31.99;39.88;98606.06;15272508;19;20006;-58
2023/09/08 13:47:23;;;;;;;2.80;0.90;;;;;;;32.30;39.68;98602.88;15267937;19;20043;-57
2023/09/08 13:52:48;;;;;;;1.05;0.70;;;;;;;32.38;39.90;98599.41;15274809;19;20011;-54
2023/09/08 13:58:16;;;;;;;1.15;0.70;;;;;;;32.76;38.56;98607.72;15271494;19;20381;-54
2023/09/08 14:04:05;;;;;;;0.80;0.80;;;;;;;33.07;39.96;98606.41;15273643;19;20025;-54
2023/09/08 14:09:36;;;;;;;2.25;0.70;;;;;;;33.19;37.48;98595.59;15276848;19;20858;-53
2023/09/08 14:15:16;;;;;;;1.10;0.80;;;;;;;33.43;37.75;98595.47;15267100;19;20011;-54
2023/09/08 14:20:50;;;;;;;2.15;0.82;;;;;;;33.74;36.72;98602.41;15260952;19;20074;-50
2023/09/08 14:26:16;;;;;;;1.85;0.77;;;;;;;34.17;37.03;98592.84;15270306;19;20029;-53
2023/09/08 14:31:41;;;;;;;1.63;0.80;;;;;;;34.47;37.32;98584.91;15271621;19;20524;-54
2023/09/08 14:37:09;;;;;;;2.72;0.80;;;;;;;34.61;35.33;98582.06;15265094;19;20021;-53
2023/09/08 14:42:33;;;;;;;3.30;0.90;;;;;;;34.68;35.62;98577.69;15260222;19;20515;-55
2023/09/08 14:47:58;;;;;;;3.13;1.05;;;;;;;34.46;35.73;98569.28;15267314;19;20062;-54
2023/09/08 14:53:27;;;;;;;1.77;0.80;;;;;;;34.48;36.52;98567.00;15269730;19;20027;-56
2023/09/08 14:58:54;;;;;;;1.90;0.90;;;;;;;34.48;35.76;98567.81;15266225;19;20011;-57
2023/09/08 15:04:18;;;;;;;1.25;0.70;;;;;;;34.61;35.99;98560.53;15269097;19;20043;-51
2023/09/08 15:09:46;;;;;;;2.45;0.80;;;;;;;34.90;35.63;98562.00;15271791;19;20602;-55
2023/09/08 15:15:10;;;;;;;0.70;0.70;;;;;;;35.10;35.37;98559.88;15261183;19;20015;-58
2023/09/08 15:20:41;;;;;;;1.92;0.80;;;;;;;35.15;34.57;98552.16;15262402;19;20019;-56
2023/09/08 15:26:10;;;;;;;2.95;0.77;;;;;;;34.94;34.81;98551.88;15259456;19;20779;-55
2023/09/08 15:31:34;;;;;;;0.88;0.70;;;;;;;35.13;35.71;98548.00;15267552;19;20395;-57
2023/09/08 15:36:59;;;;;;;1.40;0.80;;;;;;;34.87;34.44;98543.91;15280366;19;20010;-56
2023/09/08 15:42:26;;;;;;;1.70;0.90;;;;;;;34.99;34.73;98551.72;15281609;19;20572;-53
2023/09/08 15:47:51;;;;;;;3.00;0.80;;;;;;;35.08;34.63;98553.75;15275762;19;20018;-55
2023/09/08 15:53:15;;;;;;;2.22;0.70;;;;;;;35.00;34.60;98542.19;15280088;19;20022;-57
2023/09/08 15:58:43;;;;;;;1.70;0.75;;;;;;;34.87;33.77;98543.09;15262386;19;20014;-57
2023/09/08 16:04:09;;;;;;;2.47;0.80;;;;;;;34.64;34.41;98545.06;15278275;19;20086;-56
2023/09/08 16:09:34;;;;;;;1.00;0.70;;;;;;;34.29;34.03;98542.78;15282428;19;20329;-56
2023/09/08 16:15:02;;;;;;;2.08;0.90;;;;;;;34.04;34.81;98542.25;15276563;19;20652;-54
2023/09/08 16:20:33;;;;;;;3.30;0.80;;;;;;;33.77;35.23;98534.69;15271501;19;20017;-58
2023/09/08 16:25:59;;;;;;;2.83;0.80;;;;;;;33.62;35.98;98530.28;15271234;19;20022;-52
2023/09/08 16:31:26;;;;;;;1.25;1.00;;;;;;;33.44;36.11;98524.50;15280533;19;20022;-56
2023/09/08 16:36:51;;;;;;;2.45;0.82;;;;;;;33.12;36.45;98525.38;15277088;19;20385;-55
2023/09/08 16:42:17;;;;;;;2.67;0.80;;;;;;;32.82;37.27;98524.81;15279758;19;20334;-53
2023/09/08 16:47:45;;;;;;;3.45;0.80;;;;;;;32.56;37.74;98516.88;15276089;19;20077;-54
2023/09/08 16:53:10;;;;;;;4.80;0.95;;;;;;;32.18;38.57;98528.84;15274002;19;20010;-56
2023/09/08 16:58:35;;;;;;;3.45;1.10;;;;;;;31.82;38.77;98529.38;15269530;19;20015;-53
2023/09/08 17:04:03;;;;;;;1.45;0.90;;;;;;;31.46;39.50;98521.47;14767478;19;10000736;-54
2023/09/08 17:09:28;;;;;;;2.45;1.00;;;;;;;31.05;40.10;98519.94;15274609;19;20364;-57
2023/09/08 17:14:52;;;;;;;4.90;0.98;;;;;;;30.54;41.81;98522.09;15274810;19;20385;-53
2023/09/08 17:20:30;;;;;;;2.47;0.93;;;;;;;30.04;42.61;98519.38;15270714;19;20016;-52
2023/09/08 17:25:55;;;;;;;13.60;1.27;;;;;;;29.62;43.21;98520.66;15270065;19;20029;-50
2023/09/08 17:31:19;;;;;;;3.42;1.08;;;;;;;29.30;43.96;98521.88;15268757;19;20464;-52
2023/09/08 17:36:47;;;;;;;1.52;0.90;;;;;;;28.99;44.11;98516.44;15273215;19;20066;-51
2023/09/08 17:42:12;;;;;;;2.78;1.10;;;;;;;28.54;45.11;98516.97;15276389;19;20014;-57
2023/09/08 17:47:37;;;;;;;1.52;1.10;;;;;;;28.11;45.86;98520.00;15275830;19;20464;-47
2023/09/08 17:53:05;;;;;;;3.83;1.02;;;;;;;27.84;46.10;98536.78;15274508;19;20015;-49
2023/09/08 17:58:30;;;;;;;5.55;1.35;;;;;;;27.54;46.93;98535.59;15265935;19;20098;-51
2023/09/08 18:03:56;;;;;;;2.88;1.20;;;;;;;27.22;47.23;98542.06;15265806;19;20371;-51
2023/09/08 18:09:24;;;;;;;6.60;1.10;;;;;;;26.84;49.02;98546.78;15270283;19;20014;-53
2023/09/08 18:14:50;;;;;;;5.55;1.20;;;;;;;26.49;50.57;98545.38;15271930;19;20330;-53
2023/09/08 18:20:22;;;;;;;1.58;1.13;;;;;;;26.19;51.40;98543.97;15271847;19;20013;-51
2023/09/08 18:25:49;;;;;;;1.70;1.25;;;;;;;25.91;51.87;98545.88;15272465;19;20365;-50
2023/09/08 18:31:14;;;;;;;3.60;1.20;;;;;;;25.63;51.86;98540.31;15271217;19;20027;-54
2023/09/08 18:36:39;;;;;;;5.22;1.30;;;;;;;25.42;52.12;98541.13;15265206;19;20031;-49
2023/09/08 18:42:07;;;;;;;3.30;1.30;;;;;;;25.18;53.07;98544.09;15271751;19;20611;-51
2023/09/08 18:47:31;;;;;;;3.60;1.13;;;;;;;24.95;53.65;98539.63;15269482;19;20018;-51
2023/09/08 18:52:56;;;;;;;3.33;1.13;;;;;;;24.76;54.23;98545.41;15272190;19;20033;-49
2023/09/08 18:58:26;;;;;;;1.50;1.20;;;;;;;24.53;56.15;98547.22;15272336;19;20010;-50
2023/09/08 19:03:51;;;;;;;;;;;;;;;24.29;57.94;98549.28;15264586;19;20018;-50
2023/09/08 19:09:15;;;;;;;1.88;1.30;;;;;;;24.06;57.51;98552.97;15260013;19;20010;-56
2023/09/08 19:14:43;;;;;;;2.03;1.30;;;;;;;23.85;58.75;98556.16;15265305;19;20026;-53
2023/09/08 19:20:16;;;;;;;2.65;1.30;;;;;;;23.67;60.55;98564.59;15269567;19;20014;-53
2023/09/08 19:25:41;;;;;;;4.20;1.10;;;;;;;23.46;63.31;98552.34;15266676;19;20033;-51
2023/09/08 19:31:09;;;;;;;3.45;1.30;;;;;;;23.19;65.23;98552.81;15268401;19;20045;-54
2023/09/08 19:36:33;;;;;;;2.67;1.40;;;;;;;23.03;67.58;98554.38;15263365;19;20022;-49
2023/09/08 19:41:58;;;;;;;2.25;1.23;;;;;;;22.93;68.68;98557.72;15260304;19;20526;-50
2023/09/08 19:47:25;;;;;;;3.38;1.48;;;;;;;22.83;71.33;98560.22;15266285;19;20782;-49
2023/09/08 19:52:50;;;;;;;2.85;1.23;;;;;;;22.75;72.17;98559.53;15264777;19;20440;-48
2023/09/08 19:58:14;;;;;;;1.90;1.50;;;;;;;22.66;76.19;98554.63;15265124;19;20420;-50
2023/09/08 20:03:42;;;;;;;1.55;1.30;;;;;;;22.53;79.62;98556.50;15268307;19;20561;-49
2023/09/08 20:09:11;;;;;;;2.13;1.30;;;;;;;22.41;84.60;98548.22;15260685;19;20070;-52
2023/09/08 20:14:36;;;;;;;2.75;1.45;;;;;;;22.35;84.90;98549.16;15237677;19;20037;-53
2023/09/08 20:20:10;;;;;;;2.58;1.38;;;;;;;22.35;85.79;98556.53;15264455;19;20048;-54
2023/09/08 20:25:34;;;;;;;1.98;1.30;;;;;;;22.31;84.81;98554.28;15276958;19;20441;-53
2023/09/08 20:31:00;;;;;;;2.42;1.48;;;;;;;22.32;84.51;98549.63;15281061;19;20074;-52
2023/09/08 20:36:37;;;;;;;3.63;1.42;;;;;;;22.31;86.35;98553.44;15278971;19;20022;-50
2023/09/08 20:42:02;;;;;;;2.65;1.42;;;;;;;22.26;85.65;98558.81;15273804;19;20035;-50
2023/09/08 20:47:26;;;;;;;2.38;1.50;;;;;;;22.20;87.24;98563.31;15271992;19;20002;-49
2023/09/08 20:52:54;;;;;;;1.60;1.27;;;;;;;22.12;87.69;98558.13;15282547;19;20006;-50
2023/09/08 20:58:19;;;;;;;1.98;1.35;;;;;;;22.02;89.16;98566.94;15278126;19;20419;-52
2023/09/08 21:03:45;;;;;;;3.20;1.40;;;;;;;21.94;90.09;98556.28;15277425;19;20086;-51
2023/09/08 21:09:20;;;;;;;1.80;1.30;;;;;;;21.89;94.53;98558.91;15278883;19;20023;-48
2023/09/08 21:14:45;;;;;;;2.30;1.30;;;;;;;21.84;93.54;98559.59;15273921;19;20078;-51
2023/09/08 21:20:10;;;;;;;1.63;1.38;;;;;;;21.76;95.65;98552.53;15272408;19;20010;-53
2023/09/08 21:25:38;;;;;;;3.92;1.40;;;;;;;21.67;100.00;98552.00;15277455;19;20573;-54
2023/09/08 21:31:12;;;;;;;2.22;1.40;;;;;;;21.63;100.00;98552.69;15277908;19;20021;-51
2023/09/08 21:36:37;;;;;;;4.40;1.40;;;;;;;21.57;100.00;98548.94;15274698;19;20022;-54
2023/09/08 21:42:05;;;;;;;1.52;1.40;;;;;;;21.54;100.00;98561.22;15276917;19;20074;-50
2023/09/08 21:47:30;;;;;;;3.47;1.40;;;;;;;21.51;100.00;98561.66;15269211;19;20017;-52
2023/09/08 21:52:55;;;;;;;1.90;1.60;;;;;;;21.47;100.00;98557.69;15268187;19;20006;-52
2023/09/08 21:58:22;;;;;;;1.60;1.50;;;;;;;21.41;100.00;98558.63;15274612;19;20018;-50
2023/09/08 22:03:47;;;;;;;2.92;1.55;;;;;;;21.36;100.00;98561.19;15276617;19;20014;-50
2023/09/08 22:09:11;;;;;;;4.85;1.40;;;;;;;21.29;100.00;98566.75;15273796;19;20028;-49
2023/09/08 22:14:39;;;;;;;2.03;1.50;;;;;;;21.19;100.00;98559.06;15277603;19;20019;-54
2023/09/08 22:20:13;;;;;;;2.03;1.50;;;;;;;21.10;100.00;98565.91;15273152;19;20492;-53
2023/09/08 22:25:39;;;;;;;3.00;1.48;;;;;;;21.00;100.00;98554.63;15273055;19;20025;-54
2023/09/08 22:31:06;;;;;;;1.63;1.52;;;;;;;20.90;100.00;98564.19;15275937;19;20038;-50
2023/09/08 22:36:31;;;;;;;4.75;1.77;;;;;;;20.75;100.00;98553.59;15271206;19;20042;-54
2023/09/08 22:41:56;;;;;;;2.83;1.40;;;;;;;20.61;100.00;98555.59;15272399;19;20014;-50
2023/09/08 22:47:23;;;;;;;1.98;1.60;;;;;;;20.49;100.00;98549.16;15272308;19;20087;-50
2023/09/08 22:52:49;;;;;;;3.22;1.58;;;;;;;20.40;100.00;98547.78;15267617;19;20457;-52
2023/09/08 22:58:16;;;;;;;2.20;1.58;;;;;;;20.30;100.00;98546.34;15271219;19;20022;-52
2023/09/08 23:03:43;;;;;;;3.20;1.50;;;;;;;20.25;100.00;98546.19;15270472;19;20018;-53
2023/09/08 23:09:07;;;;;;;1.60;1.50;;;;;;;20.21;100.00;98546.84;15270630;19;20460;-50
2023/09/08 23:14:32;;;;;;;2.03;1.50;;;;;;;20.17;100.00;98538.22;15270784;19;20373;-52
2023/09/08 23:20:20;;;;;;;1.50;1.40;;;;;;;20.12;100.00;98538.88;15262623;19;20484;-55
2023/09/08 23:25:46;;;;;;;1.85;1.60;;;;;;;20.01;100.00;98534.97;15263564;19;20467;-52
2023/09/08 23:31:11;;;;;;;4.07;1.50;;;;;;;19.90;100.00;98541.16;15271543;19;20796;-54
2023/09/08 23:36:38;;;;;;;2.78;1.42;;;;;;;19.85;100.00;98543.66;15269279;19;20085;-51
2023/09/08 23:42:03;;;;;;;3.40;1.73;;;;;;;19.77;100.00;98542.00;15265204;19;20018;-49
2023/09/08 23:47:27;;;;;;;1.77;1.50;;;;;;;19.70;100.00;98536.56;15266471;19;20010;-51
2023/09/08 23:52:55;;;;;;;2.58;1.50;;;;;;;19.62;100.00;98533.28;15264069;19;20025;-51
2023/09/08 23:58:20;;;;;;;1.83;1.58;;;;;;;19.54;100.00;98529.72;15273136;19;20026;-52
